Time;durP1;ratioP1;P1;durP2;ratioP2;P2;SDS_P1;SDS_P2;PMS_P1;PMS_P2;Temp;Humidity;BMP_temperature;BMP_pressure;BME280_temperature;BME280_humidity;BME280_pressure;Samples;Min_cycle;Max_cycle;Signal;HPM_P1;HPM_P2
2020/12/07 00:00:39;;;;;;;5.93;5.13;;;2.80;99.90;;;;;;4948379;29;20174;-73
2020/12/07 00:03:05;;;;;;;16.17;10.50;;;2.70;99.90;;;;;;4952609;28;20188;-75
2020/12/07 00:05:30;;;;;;;10.13;5.10;;;2.70;99.90;;;;;;4952546;29;21082;-73
2020/12/07 00:07:56;;;;;;;8.27;6.10;;;2.80;99.90;;;;;;4952594;29;20228;-73
2020/12/07 00:10:22;;;;;;;5.37;4.87;;;2.80;99.90;;;;;;4952575;29;20180;-73
2020/12/07 00:12:47;;;;;;;5.63;4.60;;;2.80;99.90;;;;;;4952327;29;20459;-74
2020/12/07 00:15:13;;;;;;;5.87;5.07;;;2.80;99.90;;;;;;4952711;29;20224;-73
2020/12/07 00:17:39;;;;;;;5.60;5.00;;;2.80;99.90;;;;;;4952418;29;20224;-73
2020/12/07 00:20:06;;;;;;;5.80;5.20;;;2.80;99.90;;;;;;4952252;29;20954;-73
2020/12/07 00:22:32;;;;;;;6.40;5.03;;;2.80;99.90;;;;;;4952083;28;20189;-73
2020/12/07 00:24:58;;;;;;;7.07;5.43;;;2.80;99.90;;;;;;4952143;28;20989;-74
2020/12/07 00:27:29;;;;;;;7.30;5.70;;;2.80;99.90;;;;;;4951943;28;20221;-74
2020/12/07 00:29:56;;;;;;;6.07;4.53;;;2.80;99.90;;;;;;4952116;28;20443;-73
2020/12/07 00:32:22;;;;;;;6.10;4.53;;;2.80;99.90;;;;;;4948396;29;20682;-73
2020/12/07 00:34:49;;;;;;;5.00;4.50;;;2.70;99.90;;;;;;4952396;28;20467;-74
2020/12/07 00:37:15;;;;;;;6.30;4.70;;;2.70;99.90;;;;;;4952039;28;20587;-73
2020/12/07 00:39:41;;;;;;;5.57;4.53;;;2.80;99.90;;;;;;4943978;28;20444;-73
2020/12/07 00:42:09;;;;;;;6.67;4.80;;;2.70;99.90;;;;;;4944610;29;20436;-74
2020/12/07 00:44:38;;;;;;;5.50;4.83;;;2.80;99.90;;;;;;4952189;28;20232;-74
2020/12/07 00:47:05;;;;;;;4.70;4.30;;;2.80;99.90;;;;;;4950782;29;20487;-73
2020/12/07 00:49:31;;;;;;;6.60;4.30;;;2.80;99.90;;;;;;4951540;28;20436;-75
2020/12/07 00:51:56;;;;;;;4.73;4.33;;;2.80;99.90;;;;;;4952171;28;20533;-73
2020/12/07 00:54:22;;;;;;;6.10;4.20;;;2.80;99.90;;;;;;4951896;29;20448;-74
2020/12/07 00:56:59;;;;;;;5.63;4.77;;;2.80;99.90;;;;;;4951664;28;20181;-73
2020/12/07 00:59:26;;;;;;;4.93;4.37;;;2.80;99.90;;;;;;4951756;28;20659;-74
2020/12/07 01:01:53;;;;;;;4.87;4.47;;;2.80;99.90;;;;;;4951963;28;20479;-73
2020/12/07 01:04:19;;;;;;;4.53;3.60;;;2.80;99.90;;;;;;4951735;28;20523;-74
2020/12/07 01:06:45;;;;;;;4.90;4.37;;;2.80;99.90;;;;;;4951628;29;20547;-74
2020/12/07 01:09:13;;;;;;;5.67;4.47;;;2.70;99.90;;;;;;4951855;28;20201;-73
2020/12/07 01:11:42;;;;;;;4.73;4.23;;;2.70;99.90;;;;;;4951546;28;20471;-74
2020/12/07 01:14:08;;;;;;;4.50;3.80;;;2.60;99.90;;;;;;4951804;28;20436;-73
2020/12/07 01:16:35;;;;;;;5.60;3.93;;;2.60;99.90;;;;;;4938328;29;20467;-74
2020/12/07 01:19:04;;;;;;;5.70;4.40;;;2.60;99.90;;;;;;4951587;28;20476;-74
2020/12/07 01:21:31;;;;;;;3.90;3.53;;;2.70;99.90;;;;;;4951978;28;20442;-73
2020/12/07 01:23:57;;;;;;;5.30;4.27;;;2.60;99.90;;;;;;4951558;28;20511;-73
2020/12/07 01:26:22;;;;;;;5.00;4.47;;;2.70;99.90;;;;;;4951467;29;20464;-74
2020/12/07 01:28:48;;;;;;;4.77;3.70;;;2.70;99.90;;;;;;4951178;28;20197;-73
2020/12/07 01:31:13;;;;;;;4.23;3.83;;;2.70;99.90;;;;;;4951718;29;20173;-73
2020/12/07 01:33:39;;;;;;;4.67;4.23;;;2.70;99.90;;;;;;4951793;28;20181;-73
2020/12/07 01:36:04;;;;;;;3.83;3.50;;;2.70;99.90;;;;;;4953382;29;20188;-73
2020/12/07 01:38:30;;;;;;;5.00;4.50;;;2.70;99.90;;;;;;4954869;29;20213;-73
2020/12/07 01:40:55;;;;;;;4.37;3.77;;;2.60;99.90;;;;;;4955437;29;20181;-74
2020/12/07 01:43:21;;;;;;;4.50;4.10;;;2.70;99.90;;;;;;4955617;28;20199;-73
2020/12/07 01:45:46;;;;;;;7.10;4.80;;;2.60;99.90;;;;;;4954625;29;20208;-73
2020/12/07 01:48:15;;;;;;;5.67;4.83;;;2.60;99.90;;;;;;4954718;28;20689;-73
2020/12/07 01:50:41;;;;;;;5.63;5.03;;;2.50;99.90;;;;;;4955232;29;20244;-72
2020/12/07 01:53:09;;;;;;;5.50;4.77;;;2.50;99.90;;;;;;4955144;29;20494;-72
2020/12/07 01:55:36;;;;;;;5.03;4.53;;;2.60;99.90;;;;;;4955135;28;20463;-73
2020/12/07 01:58:01;;;;;;;6.50;5.80;;;2.60;99.90;;;;;;4954646;28;20515;-72
2020/12/07 02:00:27;;;;;;;6.83;5.20;;;2.60;99.90;;;;;;4954721;29;20444;-73
2020/12/07 02:02:53;;;;;;;7.67;5.30;;;2.60;99.90;;;;;;4955055;29;20710;-73
2020/12/07 02:05:19;;;;;;;6.03;5.43;;;2.50;99.90;;;;;;4954820;28;20173;-73
2020/12/07 02:07:44;;;;;;;6.60;5.70;;;2.50;99.90;;;;;;4954053;28;20499;-74
2020/12/07 02:10:10;;;;;;;6.07;5.47;;;2.50;99.90;;;;;;4954466;29;20181;-72
2020/12/07 02:12:36;;;;;;;8.10;6.73;;;2.40;99.90;;;;;;4954732;29;20674;-73
2020/12/07 02:15:01;;;;;;;7.10;6.40;;;2.40;99.90;;;;;;4954717;29;20180;-73
2020/12/07 02:17:27;;;;;;;8.00;6.70;;;2.50;99.90;;;;;;4954739;28;20275;-73
2020/12/07 02:19:53;;;;;;;6.70;6.00;;;2.50;99.90;;;;;;4954438;29;20527;-74
2020/12/07 02:22:18;;;;;;;7.43;6.37;;;2.40;99.90;;;;;;4954616;29;20211;-73
2020/12/07 02:24:44;;;;;;;7.03;6.33;;;2.50;99.90;;;;;;4952678;29;20643;-73
2020/12/07 02:27:09;;;;;;;6.30;5.70;;;2.40;99.90;;;;;;4954359;29;20614;-73
2020/12/07 02:29:35;;;;;;;7.50;6.80;;;2.40;99.90;;;;;;4953853;29;20236;-73
2020/12/07 02:32:15;;;;;;;6.90;6.10;;;2.50;99.90;;;;;;4947627;28;20185;-73
2020/12/07 02:34:42;;;;;;;6.83;5.97;;;2.50;99.90;;;;;;4952205;29;20180;-73
2020/12/07 02:37:08;;;;;;;5.50;5.00;;;2.50;99.90;;;;;;4954268;28;21008;-74
2020/12/07 02:39:33;;;;;;;8.03;6.10;;;2.50;99.90;;;;;;4953874;29;20432;-72
2020/12/07 02:42:01;;;;;;;7.50;6.03;;;2.50;99.90;;;;;;4953964;29;20428;-72
2020/12/07 02:44:26;;;;;;;7.00;6.37;;;2.50;99.90;;;;;;4954262;28;20550;-74
2020/12/07 02:46:52;;;;;;;5.93;5.33;;;2.50;99.90;;;;;;4953512;28;20472;-73
2020/12/07 02:49:17;;;;;;;6.07;5.50;;;2.50;99.90;;;;;;4953691;29;20192;-73
2020/12/07 02:51:43;;;;;;;5.07;4.63;;;2.50;99.90;;;;;;4954263;29;20173;-72
2020/12/07 02:54:09;;;;;;;5.73;5.20;;;2.50;99.90;;;;;;4953872;29;20193;-73
2020/12/07 02:56:34;;;;;;;8.33;5.60;;;2.50;99.90;;;;;;4953990;29;20232;-73
2020/12/07 02:59:00;;;;;;;6.90;5.50;;;2.50;99.90;;;;;;4953087;28;20205;-73
2020/12/07 03:01:25;;;;;;;6.10;5.50;;;2.50;99.90;;;;;;4953488;29;20189;-73
2020/12/07 03:03:51;;;;;;;6.00;5.40;;;2.50;99.90;;;;;;4954075;29;20607;-73
2020/12/07 03:06:16;;;;;;;6.00;5.50;;;2.50;99.90;;;;;;4953657;29;20205;-72
2020/12/07 03:08:41;;;;;;;8.23;5.17;;;2.50;99.90;;;;;;4953167;28;20201;-73
2020/12/07 03:11:07;;;;;;;6.17;5.30;;;2.40;99.90;;;;;;4953697;29;20173;-73
2020/12/07 03:13:33;;;;;;;5.63;5.03;;;2.40;99.90;;;;;;4953561;29;20554;-73
2020/12/07 03:15:58;;;;;;;5.90;5.23;;;2.40;99.90;;;;;;4953127;29;20264;-73
2020/12/07 03:18:24;;;;;;;6.53;5.73;;;2.40;99.90;;;;;;4952972;29;20301;-73
2020/12/07 03:20:49;;;;;;;6.63;5.90;;;2.40;99.90;;;;;;4953379;29;20189;-74
2020/12/07 03:23:15;;;;;;;6.80;6.17;;;2.40;99.90;;;;;;4953471;29;20204;-72
2020/12/07 03:25:40;;;;;;;5.70;4.90;;;2.40;99.90;;;;;;4953666;28;20834;-73
2020/12/07 03:28:06;;;;;;;8.50;6.70;;;2.40;99.90;;;;;;4952627;29;20209;-74
2020/12/07 03:30:31;;;;;;;8.73;6.17;;;2.30;99.90;;;;;;4953023;29;20177;-73
2020/12/07 03:32:57;;;;;;;6.90;5.90;;;2.40;99.90;;;;;;4953246;29;20181;-73
2020/12/07 03:35:22;;;;;;;6.77;6.07;;;2.40;99.90;;;;;;4953286;29;20177;-73
2020/12/07 03:37:48;;;;;;;6.20;5.60;;;2.30;99.90;;;;;;4953015;29;20192;-73
2020/12/07 03:40:13;;;;;;;6.30;5.73;;;2.40;99.90;;;;;;4951498;29;20232;-73
2020/12/07 03:42:39;;;;;;;6.73;5.73;;;2.30;99.90;;;;;;4953189;29;20236;-74
2020/12/07 03:45:04;;;;;;;5.90;5.07;;;2.30;99.90;;;;;;4952797;29;20181;-73
2020/12/07 03:47:30;;;;;;;6.43;5.37;;;2.30;99.90;;;;;;4951856;29;20219;-74
2020/12/07 03:49:55;;;;;;;6.37;5.53;;;2.30;99.90;;;;;;4952528;29;20200;-74
2020/12/07 03:52:22;;;;;;;9.00;5.87;;;2.30;99.90;;;;;;4952911;29;20196;-73
2020/12/07 03:54:47;;;;;;;6.97;6.27;;;2.30;99.90;;;;;;4952401;29;20188;-73
2020/12/07 03:57:13;;;;;;;5.93;5.43;;;2.30;99.90;;;;;;4951814;28;20994;-73
2020/12/07 03:59:38;;;;;;;6.20;5.50;;;2.40;99.90;;;;;;4952683;29;20181;-73
2020/12/07 04:02:04;;;;;;;7.07;5.40;;;2.40;99.90;;;;;;4952902;29;20181;-73
2020/12/07 04:04:41;;;;;;;6.90;5.80;;;2.40;99.90;;;;;;4951281;29;20181;-73
2020/12/07 04:07:06;;;;;;;6.03;5.43;;;2.40;99.90;;;;;;4951258;29;20212;-73
2020/12/07 04:09:32;;;;;;;6.87;6.00;;;2.40;99.90;;;;;;4952013;29;20429;-74
2020/12/07 04:11:57;;;;;;;8.50;6.70;;;2.50;99.90;;;;;;4952860;29;20176;-73
2020/12/07 04:14:23;;;;;;;6.53;5.70;;;2.50;99.90;;;;;;4952406;29;20192;-73
2020/12/07 04:16:49;;;;;;;6.80;4.80;;;2.50;99.90;;;;;;4952610;28;20609;-73
2020/12/07 04:19:14;;;;;;;7.20;4.83;;;2.50;99.90;;;;;;4952170;29;20208;-73
2020/12/07 04:21:40;;;;;;;11.90;6.30;;;2.40;99.90;;;;;;4952190;28;20185;-74
2020/12/07 04:24:05;;;;;;;7.13;5.97;;;2.40;99.90;;;;;;4952082;29;20184;-72
2020/12/07 04:26:31;;;;;;;6.00;5.07;;;2.50;99.90;;;;;;4952020;29;20223;-73
2020/12/07 04:28:58;;;;;;;5.87;5.20;;;2.50;99.90;;;;;;4951715;29;20203;-73
2020/12/07 04:31:24;;;;;;;6.33;5.73;;;2.50;99.90;;;;;;4952468;28;20176;-74
2020/12/07 04:33:49;;;;;;;5.07;4.63;;;2.50;99.90;;;;;;4952139;29;20511;-73
2020/12/07 04:36:16;;;;;;;7.10;5.13;;;2.50;99.90;;;;;;4952199;29;20237;-73
2020/12/07 04:38:42;;;;;;;7.00;6.03;;;2.60;99.90;;;;;;4951687;28;20200;-73
2020/12/07 04:41:07;;;;;;;7.33;5.00;;;2.60;99.90;;;;;;4952402;29;20796;-73
2020/12/07 04:43:33;;;;;;;6.90;5.40;;;2.60;99.90;;;;;;4952272;29;20195;-74
2020/12/07 04:45:59;;;;;;;5.93;4.93;;;2.60;99.90;;;;;;4952028;29;20239;-74
2020/12/07 04:48:26;;;;;;;5.80;4.77;;;2.60;99.90;;;;;;4951740;29;20495;-74
2020/12/07 04:50:54;;;;;;;6.47;5.83;;;2.60;99.90;;;;;;4951128;29;20596;-73
2020/12/07 04:53:20;;;;;;;6.13;5.30;;;2.60;99.90;;;;;;4951883;28;20459;-74
2020/12/07 04:55:46;;;;;;;6.60;5.83;;;2.60;99.90;;;;;;4952041;28;20495;-73
2020/12/07 04:58:12;;;;;;;13.03;6.13;;;2.70;99.90;;;;;;4951345;28;20860;-74
2020/12/07 05:00:40;;;;;;;7.20;5.70;;;2.70;99.90;;;;;;4952387;28;20440;-73
2020/12/07 05:03:05;;;;;;;7.57;6.17;;;2.70;99.90;;;;;;4952004;28;20527;-74
2020/12/07 05:05:31;;;;;;;6.50;5.23;;;2.70;99.90;;;;;;4950955;29;20519;-74
2020/12/07 05:07:58;;;;;;;10.60;5.70;;;2.70;99.90;;;;;;4951597;28;20209;-74
2020/12/07 05:10:37;;;;;;;7.97;5.70;;;2.70;99.90;;;;;;4940130;29;20220;-73
2020/12/07 05:13:26;;;;;;;8.13;6.07;;;2.70;99.90;;;;;;4955473;28;20996;-74
2020/12/07 05:15:51;;;;;;;6.03;4.77;;;2.70;99.90;;;;;;4955867;28;20507;-74
2020/12/07 05:18:17;;;;;;;6.17;4.97;;;2.70;99.90;;;;;;4977830;23;20496;-68
2020/12/07 05:20:43;;;;;;;6.63;5.20;;;2.70;99.90;;;;;;4950132;29;20220;-68
2020/12/07 05:23:13;;;;;;;6.50;5.40;;;2.70;99.90;;;;;;4945865;29;20181;-69
2020/12/07 05:25:38;;;;;;;6.17;5.53;;;2.70;99.90;;;;;;4955619;28;20173;-69
2020/12/07 05:28:06;;;;;;;7.90;5.97;;;2.70;99.90;;;;;;4954643;29;20456;-69
2020/12/07 05:30:35;;;;;;;7.37;5.73;;;2.70;99.90;;;;;;4955533;28;20231;-68
2020/12/07 05:33:01;;;;;;;7.80;6.53;;;2.70;99.90;;;;;;4955783;28;20531;-68
2020/12/07 05:35:27;;;;;;;8.73;6.33;;;2.70;99.90;;;;;;4955037;28;20902;-69
2020/12/07 05:37:52;;;;;;;7.97;6.60;;;2.80;99.90;;;;;;4954222;28;20204;-68
2020/12/07 05:40:18;;;;;;;8.87;7.20;;;2.70;99.90;;;;;;4955292;29;20176;-70
2020/12/07 05:42:43;;;;;;;8.80;6.60;;;2.70;99.90;;;;;;4955395;28;20199;-68
2020/12/07 05:45:11;;;;;;;10.63;6.50;;;2.70;99.90;;;;;;4955250;29;20181;-68
2020/12/07 05:47:38;;;;;;;8.50;6.90;;;2.70;99.90;;;;;;4954858;28;20205;-68
2020/12/07 05:50:07;;;;;;;8.60;7.20;;;2.70;99.90;;;;;;4954676;28;20436;-69
2020/12/07 05:52:44;;;;;;;8.80;7.20;;;2.70;99.90;;;;;;4940208;29;20491;-68
2020/12/07 05:55:12;;;;;;;8.37;6.23;;;2.70;99.90;;;;;;4954838;29;20440;-70
2020/12/07 05:58:04;;;;;;;9.30;6.83;;;2.70;99.90;;;;;;4947102;29;20446;-69
2020/12/07 06:00:34;;;;;;;9.70;7.60;;;2.70;99.90;;;;;;4953580;28;20443;-69
2020/12/07 06:03:05;;;;;;;7.27;6.50;;;2.70;99.90;;;;;;4955075;28;20527;-68
2020/12/07 06:05:31;;;;;;;13.20;7.63;;;2.70;99.90;;;;;;4954543;29;20444;-69
2020/12/07 06:08:14;;;;;;;10.27;7.80;;;2.70;99.90;;;;;;4954340;28;20463;-69
2020/12/07 06:10:48;;;;;;;7.80;6.03;;;2.60;99.90;;;;;;4955084;28;20950;-69
2020/12/07 06:13:23;;;;;;;7.40;6.40;;;2.60;99.90;;;;;;4954680;28;20463;-68
2020/12/07 06:15:50;;;;;;;8.10;7.10;;;2.60;99.90;;;;;;4955194;28;20960;-68
2020/12/07 06:18:26;;;;;;;10.73;7.83;;;2.60;99.90;;;;;;4953740;28;20583;-68
2020/12/07 06:20:56;;;;;;;13.00;7.13;;;2.50;99.90;;;;;;4942568;29;20937;-68
2020/12/07 06:23:35;;;;;;;12.33;7.10;;;2.50;99.90;;;;;;4954742;28;21086;-68
2020/12/07 06:26:04;;;;;;;9.33;7.57;;;2.50;99.90;;;;;;4949267;29;20466;-69
2020/12/07 06:28:35;;;;;;;10.87;7.30;;;2.50;99.90;;;;;;4953200;28;20452;-68
2020/12/07 06:31:08;;;;;;;9.90;8.07;;;2.40;99.90;;;;;;4954699;28;20495;-68
2020/12/07 06:33:40;;;;;;;8.30;6.80;;;2.40;99.90;;;;;;4954381;29;20781;-68
2020/12/07 06:36:23;;;;;;;21.40;12.33;;;2.40;99.90;;;;;;4954049;29;20440;-68
2020/12/07 06:38:49;;;;;;;9.60;7.10;;;2.40;99.90;;;;;;4940378;29;20463;-68
2020/12/07 06:41:37;;;;;;;7.33;6.63;;;2.30;99.90;;;;;;4954415;28;21020;-68
2020/12/07 06:44:10;;;;;;;8.20;7.37;;;2.30;99.90;;;;;;4952600;29;20189;-68
2020/12/07 06:46:58;;;;;;;10.00;7.57;;;2.30;99.90;;;;;;4949525;28;20500;-69
2020/12/07 06:49:50;;;;;;;10.03;7.97;;;2.20;99.90;;;;;;4953195;28;20448;-69
2020/12/07 06:52:22;;;;;;;17.10;12.47;;;2.30;99.90;;;;;;4954037;28;20428;-68
2020/12/07 06:55:08;;;;;;;27.33;15.20;;;2.20;99.90;;;;;;4953483;28;20435;-68
2020/12/07 06:57:46;;;;;;;12.80;9.10;;;2.20;99.90;;;;;;4945869;29;20436;-68
2020/12/07 07:00:24;;;;;;;19.03;9.07;;;2.20;99.90;;;;;;4951611;28;22011;-68
2020/12/07 07:02:52;;;;;;;11.50;9.27;;;2.20;99.90;;;;;;4953984;28;20444;-68
2020/12/07 07:05:19;;;;;;;13.17;9.73;;;2.20;99.90;;;;;;4946063;29;20946;-68
2020/12/07 07:07:45;;;;;;;12.53;9.50;;;2.20;99.90;;;;;;4952949;28;20468;-68
2020/12/07 07:10:14;;;;;;;12.73;9.27;;;2.20;99.90;;;;;;4953436;29;20444;-68
2020/12/07 07:12:40;;;;;;;11.20;8.53;;;2.30;99.90;;;;;;4953748;28;20432;-69
2020/12/07 07:15:08;;;;;;;17.80;11.67;;;2.30;99.90;;;;;;4953688;28;20464;-68
2020/12/07 07:17:39;;;;;;;13.00;10.80;;;2.30;99.90;;;;;;4953070;28;20672;-66
2020/12/07 07:20:06;;;;;;;17.50;11.60;;;2.40;99.90;;;;;;4953102;29;20436;-64
2020/12/07 07:22:34;;;;;;;15.40;10.73;;;2.40;99.90;;;;;;4953313;28;20479;-67
2020/12/07 07:25:19;;;;;;;15.80;11.50;;;2.50;99.90;;;;;;4941294;28;20434;-66
2020/12/07 07:28:07;;;;;;;13.17;11.10;;;2.50;99.90;;;;;;4948810;29;20819;-66
2020/12/07 07:30:33;;;;;;;15.40;11.40;;;2.60;99.90;;;;;;4950165;29;20800;-65
2020/12/07 07:32:59;;;;;;;15.80;10.87;;;2.60;99.90;;;;;;4942869;28;20448;-65
2020/12/07 07:35:31;;;;;;;15.10;9.90;;;2.70;99.90;;;;;;4946505;28;20507;-67
2020/12/07 07:37:58;;;;;;;13.53;11.23;;;2.70;99.90;;;;;;4956119;28;20501;-65
2020/12/07 07:40:27;;;;;;;14.50;11.60;;;2.70;99.90;;;;;;4953607;28;20444;-66
2020/12/07 07:43:03;;;;;;;17.70;13.30;;;2.70;99.90;;;;;;4952516;28;20447;-66
2020/12/07 07:45:33;;;;;;;15.50;10.67;;;2.70;99.90;;;;;;4956147;28;20444;-67
2020/12/07 07:48:09;;;;;;;18.93;13.27;;;2.70;99.90;;;;;;4952570;28;20495;-66
2020/12/07 07:59:50;;;;;;;15.60;10.90;;;3.10;99.90;;;;;;4939742;29;20450;-65
2020/12/07 08:15:53;;;;;;;6.43;5.83;;;6.30;99.90;;;;;;4952486;29;20499;-67
2020/12/07 08:18:34;;;;;;;8.80;6.70;;;7.10;99.90;;;;;;4951551;28;20850;-66
2020/12/07 08:21:02;;;;;;;9.50;7.10;;;7.80;99.90;;;;;;4952243;29;20440;-66
2020/12/07 08:23:32;;;;;;;6.70;6.00;;;7.90;99.90;;;;;;4951977;28;20432;-66
2020/12/07 08:25:58;;;;;;;6.70;5.40;;;8.80;99.90;;;;;;4958545;28;20808;-66
2020/12/07 08:28:31;;;;;;;5.63;5.13;;;8.80;99.90;;;;;;4951273;29;20479;-66
2020/12/07 08:31:03;;;;;;;7.47;6.40;;;8.90;99.90;;;;;;4952362;28;20512;-66
2020/12/07 08:33:30;;;;;;;5.17;4.77;;;9.00;99.90;;;;;;4950367;29;20432;-66
2020/12/07 08:35:56;;;;;;;6.57;5.97;;;8.90;99.90;;;;;;4950972;29;20439;-67
2020/12/07 08:38:27;;;;;;;5.90;5.30;;;9.40;99.90;;;;;;4951141;28;20973;-66
2020/12/07 08:40:53;;;;;;;6.00;5.50;;;10.00;99.90;;;;;;4952487;28;20528;-66
2020/12/07 08:43:19;;;;;;;5.03;4.63;;;9.70;99.90;;;;;;4952060;29;20864;-67
2020/12/07 08:45:46;;;;;;;5.47;5.07;;;9.50;99.90;;;;;;4956241;28;20177;-66
2020/12/07 08:48:13;;;;;;;5.20;4.70;;;9.60;99.90;;;;;;4956327;28;20298;-66
2020/12/07 08:50:39;;;;;;;5.77;5.17;;;9.50;99.90;;;;;;4960896;28;20456;-66
2020/12/07 08:53:04;;;;;;;7.23;6.63;;;9.70;99.90;;;;;;4951878;28;20475;-66
2020/12/07 08:55:30;;;;;;;8.33;6.60;;;10.00;99.90;;;;;;4952005;28;20248;-66
2020/12/07 08:57:55;;;;;;;6.40;5.90;;;10.00;99.90;;;;;;4951245;28;20213;-66
2020/12/07 09:00:21;;;;;;;4.90;4.50;;;10.30;99.90;;;;;;4950964;28;20252;-66
2020/12/07 09:02:46;;;;;;;6.03;5.43;;;10.40;99.90;;;;;;4950712;29;20553;-66
2020/12/07 09:05:12;;;;;;;4.80;4.30;;;10.80;99.90;;;;;;4951457;28;20189;-66
2020/12/07 09:07:37;;;;;;;4.13;3.83;;;11.20;99.90;;;;;;4951040;29;20739;-66
2020/12/07 09:10:03;;;;;;;5.37;4.60;;;11.50;99.90;;;;;;4950803;29;20189;-66
2020/12/07 09:12:28;;;;;;;4.57;4.10;;;12.10;99.90;;;;;;4951853;28;20189;-66
2020/12/07 09:14:54;;;;;;;4.57;4.17;;;12.30;99.90;;;;;;4950403;29;20181;-67
2020/12/07 09:17:19;;;;;;;4.57;4.13;;;12.50;99.90;;;;;;4951120;28;20554;-67
2020/12/07 09:19:45;;;;;;;4.50;4.10;;;12.20;99.90;;;;;;4950998;28;20231;-66
2020/12/07 09:22:11;;;;;;;4.83;4.43;;;11.70;99.90;;;;;;4951246;28;20195;-66
2020/12/07 09:24:36;;;;;;;4.90;4.40;;;12.20;99.90;;;;;;4951642;28;20268;-65
2020/12/07 09:27:02;;;;;;;4.57;4.20;;;12.00;99.90;;;;;;4951592;29;20550;-66
2020/12/07 09:29:27;;;;;;;4.80;4.43;;;12.90;99.90;;;;;;4949974;29;20582;-66
2020/12/07 09:31:53;;;;;;;4.80;4.40;;;13.60;99.90;;;;;;4951158;29;20185;-66
2020/12/07 09:34:18;;;;;;;4.93;4.63;;;13.90;99.90;;;;;;4951215;29;20785;-66
2020/12/07 09:36:44;;;;;;;4.30;4.00;;;14.30;99.90;;;;;;4951216;29;20185;-66
2020/12/07 09:39:10;;;;;;;4.93;4.53;;;14.40;99.90;;;;;;4950832;28;20192;-66
2020/12/07 09:41:35;;;;;;;4.53;4.20;;;13.90;99.90;;;;;;4954978;28;20177;-66
2020/12/07 09:44:01;;;;;;;4.50;4.20;;;14.00;99.90;;;;;;4950744;28;20169;-66
2020/12/07 09:46:26;;;;;;;4.77;4.40;;;13.40;99.90;;;;;;4963767;28;20764;-66
2020/12/07 09:48:52;;;;;;;4.73;4.33;;;13.20;99.90;;;;;;4950737;29;20205;-66
2020/12/07 09:51:18;;;;;;;4.60;4.20;;;13.10;99.90;;;;;;4950689;28;20181;-66
2020/12/07 09:53:43;;;;;;;4.83;4.43;;;13.00;99.90;;;;;;4951308;28;20614;-65
2020/12/07 09:56:09;;;;;;;4.67;4.37;;;12.50;99.90;;;;;;4952836;28;20208;-66
2020/12/07 09:58:35;;;;;;;4.60;4.20;;;12.40;99.90;;;;;;4953825;29;20630;-66
2020/12/07 10:01:00;;;;;;;4.80;4.40;;;12.30;99.90;;;;;;4954542;28;20185;-66
2020/12/07 10:03:26;;;;;;;4.43;4.03;;;12.40;99.90;;;;;;4955492;28;20435;-66
2020/12/07 10:05:51;;;;;;;4.93;4.47;;;13.40;99.90;;;;;;4954622;28;20181;-66
2020/12/07 10:08:17;;;;;;;6.30;5.70;;;13.20;99.90;;;;;;4953491;28;20666;-66
2020/12/07 10:10:43;;;;;;;4.90;4.50;;;13.00;99.90;;;;;;4954244;28;20192;-66
2020/12/07 10:13:08;;;;;;;4.57;4.17;;;13.90;99.90;;;;;;4954321;29;20192;-66
2020/12/07 10:15:34;;;;;;;4.40;4.10;;;13.90;99.90;;;;;;4954165;28;20177;-66
2020/12/07 10:18:00;;;;;;;3.90;3.60;;;13.00;99.90;;;;;;4953498;28;20213;-66
2020/12/07 10:20:25;;;;;;;5.03;4.60;;;13.50;99.90;;;;;;4953953;29;20559;-66
2020/12/07 10:22:51;;;;;;;4.77;4.37;;;14.40;99.90;;;;;;4954030;29;20192;-65
2020/12/07 10:25:16;;;;;;;4.60;4.20;;;13.70;99.90;;;;;;4964619;28;20180;-65
2020/12/07 10:27:42;;;;;;;5.27;4.53;;;13.70;99.90;;;;;;4954882;28;20217;-66
2020/12/07 10:30:07;;;;;;;5.90;5.27;;;13.30;99.90;;;;;;4953489;29;20208;-66
2020/12/07 10:32:33;;;;;;;5.00;4.53;;;12.30;99.90;;;;;;4954055;28;20666;-65
2020/12/07 10:34:58;;;;;;;5.00;4.67;;;11.00;99.90;;;;;;4953853;29;20907;-65
2020/12/07 10:37:24;;;;;;;4.20;3.83;;;10.30;99.90;;;;;;4953885;28;20212;-66
2020/12/07 10:39:49;;;;;;;4.53;4.10;;;10.60;99.90;;;;;;4953076;29;20602;-66
2020/12/07 10:42:15;;;;;;;5.10;4.53;;;11.40;99.90;;;;;;4953324;29;20184;-66
2020/12/07 10:44:41;;;;;;;6.40;5.73;;;12.10;99.90;;;;;;4955480;28;20674;-67
2020/12/07 10:47:06;;;;;;;4.87;4.47;;;12.20;99.90;;;;;;4953815;28;20209;-64
2020/12/07 10:49:32;;;;;;;5.10;4.50;;;12.60;99.90;;;;;;4946580;29;20232;-66
2020/12/07 10:51:59;;;;;;;4.27;3.97;;;13.50;99.90;;;;;;4928295;29;21139;-67
2020/12/07 10:54:24;;;;;;;4.70;4.03;;;13.30;99.90;;;;;;4950775;28;20180;-66
2020/12/07 10:56:50;;;;;;;4.40;4.10;;;13.30;99.90;;;;;;4953290;28;20802;-66
2020/12/07 10:59:15;;;;;;;4.70;4.30;;;13.30;99.90;;;;;;4952604;28;20212;-66
2020/12/07 11:01:41;;;;;;;4.50;4.10;;;13.80;99.90;;;;;;4953469;28;20187;-66
2020/12/07 11:04:07;;;;;;;5.03;4.63;;;14.80;99.90;;;;;;4952867;29;20189;-65
2020/12/07 11:06:35;;;;;;;4.47;4.17;;;15.00;97.50;;;;;;4953008;28;20803;-64
2020/12/07 11:09:07;;;;;;;4.63;4.23;;;14.70;97.90;;;;;;4951725;29;20566;-65
2020/12/07 11:11:32;;;;;;;4.83;4.53;;;12.80;99.90;;;;;;4953297;28;20941;-64
2020/12/07 11:13:58;;;;;;;4.40;4.10;;;10.30;99.90;;;;;;4952080;28;20431;-66
2020/12/07 11:16:24;;;;;;;5.53;5.13;;;8.90;99.90;;;;;;4954057;28;20681;-64
2020/12/07 11:18:50;;;;;;;5.03;4.60;;;8.50;99.90;;;;;;4992942;23;20234;-69
2020/12/07 11:21:16;;;;;;;5.17;4.63;;;8.00;99.90;;;;;;4990744;28;20442;-68
2020/12/07 11:23:44;;;;;;;6.23;5.63;;;7.70;99.90;;;;;;4991163;28;20430;-67
2020/12/07 11:26:11;;;;;;;5.10;4.70;;;7.90;99.90;;;;;;4983105;28;20466;-67
2020/12/07 11:28:38;;;;;;;4.23;3.77;;;8.70;99.90;;;;;;4986731;28;20456;-67
2020/12/07 11:31:05;;;;;;;5.50;5.00;;;8.70;99.90;;;;;;4991704;28;20441;-67
2020/12/07 11:33:31;;;;;;;6.10;5.50;;;8.40;99.90;;;;;;4991084;28;20466;-66
2020/12/07 11:35:57;;;;;;;4.53;4.23;;;8.00;99.90;;;;;;4991684;28;20782;-65
2020/12/07 11:38:25;;;;;;;4.50;4.10;;;7.50;99.90;;;;;;4989964;28;20462;-65
2020/12/07 11:46:00;;;;;;;5.90;4.50;;;6.90;99.90;;;;;;4991529;28;20207;-65
2020/12/07 11:48:26;;;;;;;5.07;4.30;;;6.70;99.90;;;;;;4990063;28;20459;-67
2020/12/07 11:50:51;;;;;;;5.67;4.67;;;6.70;99.90;;;;;;4991013;28;20214;-67
2020/12/07 11:53:17;;;;;;;4.97;4.47;;;6.60;99.90;;;;;;4991266;28;20596;-68
2020/12/07 11:55:46;;;;;;;4.47;4.07;;;6.50;99.90;;;;;;4989183;28;20180;-67
2020/12/07 11:58:12;;;;;;;6.70;4.10;;;6.50;99.90;;;;;;4989313;28;20184;-68
2020/12/07 12:00:37;;;;;;;4.33;4.03;;;6.40;99.90;;;;;;4991167;28;20426;-67
2020/12/07 12:03:03;;;;;;;4.37;3.97;;;6.00;99.90;;;;;;4990409;28;20447;-68
2020/12/07 12:05:29;;;;;;;3.80;3.40;;;5.90;99.90;;;;;;4990526;28;20203;-67
2020/12/07 12:07:54;;;;;;;3.43;3.07;;;5.70;99.90;;;;;;4989987;28;20210;-68
2020/12/07 12:10:20;;;;;;;4.70;3.97;;;5.60;99.90;;;;;;4981600;28;20233;-67
2020/12/07 12:12:45;;;;;;;5.37;4.00;;;5.60;99.90;;;;;;4994519;28;20186;-68
2020/12/07 12:15:11;;;;;;;4.43;3.93;;;5.60;99.90;;;;;;4989530;28;20172;-67
2020/12/07 12:17:36;;;;;;;3.93;3.60;;;5.60;99.90;;;;;;4989862;28;20194;-67
2020/12/07 12:20:03;;;;;;;3.97;3.67;;;5.50;99.90;;;;;;4989134;28;20695;-67
2020/12/07 12:22:29;;;;;;;7.33;6.40;;;5.50;99.90;;;;;;4991094;28;20172;-68
2020/12/07 12:24:54;;;;;;;4.80;3.67;;;5.50;99.90;;;;;;4990719;28;20533;-68
2020/12/07 12:27:21;;;;;;;4.40;4.03;;;5.40;99.90;;;;;;4990028;28;20214;-67
2020/12/07 12:29:47;;;;;;;5.10;4.70;;;5.40;99.90;;;;;;4989773;28;20191;-67
2020/12/07 12:32:12;;;;;;;5.20;4.03;;;5.40;99.90;;;;;;4990316;28;20983;-66
2020/12/07 12:34:38;;;;;;;4.97;4.57;;;5.30;99.90;;;;;;4990620;28;20168;-68
2020/12/07 12:37:03;;;;;;;5.13;4.63;;;5.30;99.90;;;;;;4990625;28;20179;-67
2020/12/07 12:39:29;;;;;;;5.57;4.83;;;5.30;99.90;;;;;;4989661;28;20200;-67
2020/12/07 12:41:54;;;;;;;8.07;5.10;;;5.30;99.90;;;;;;4989964;28;20181;-67
2020/12/07 12:44:20;;;;;;;5.17;4.77;;;5.30;99.90;;;;;;4990324;28;20187;-67
2020/12/07 12:46:46;;;;;;;5.67;5.10;;;5.40;99.90;;;;;;4990376;28;20203;-67
2020/12/07 12:49:11;;;;;;;5.80;5.17;;;5.40;99.90;;;;;;4989768;28;20724;-67
2020/12/07 12:51:37;;;;;;;6.77;5.30;;;5.40;99.90;;;;;;4990161;28;20550;-67
2020/12/07 12:54:02;;;;;;;5.33;4.90;;;5.40;99.90;;;;;;4990289;28;20199;-67
2020/12/07 12:56:28;;;;;;;6.97;5.67;;;5.50;99.90;;;;;;4988877;28;20184;-67
2020/12/07 12:58:54;;;;;;;5.37;4.87;;;5.40;99.90;;;;;;4989505;28;20210;-67
2020/12/07 13:01:19;;;;;;;4.93;4.53;;;5.40;99.90;;;;;;4989906;28;20194;-67
2020/12/07 13:03:45;;;;;;;6.37;5.87;;;5.30;99.90;;;;;;4990241;28;20660;-67
2020/12/07 13:06:10;;;;;;;5.73;5.23;;;5.30;99.90;;;;;;4990276;28;20230;-67
2020/12/07 13:08:36;;;;;;;6.77;5.93;;;5.30;99.90;;;;;;4989520;28;20206;-67
2020/12/07 13:11:02;;;;;;;5.63;5.13;;;5.40;99.90;;;;;;4990136;28;20175;-67
2020/12/07 13:13:27;;;;;;;6.83;5.67;;;5.40;99.90;;;;;;4992474;28;20172;-67
2020/12/07 13:15:58;;;;;;;4.73;4.33;;;5.50;99.90;;;;;;4988037;28;20176;-67
2020/12/07 13:18:26;;;;;;;5.40;4.90;;;5.70;99.90;;;;;;4986122;28;20215;-67
2020/12/07 13:21:00;;;;;;;6.10;5.60;;;5.70;99.90;;;;;;4989093;28;20430;-67